sensor_id;sensor_type;location;lat;lon;timestamp;temperature;humidity
8067;DHT22;4076;48.076;9.118;2023-04-24T00:00:55;10.30;99.90
8067;DHT22;4076;48.076;9.118;2023-04-24T00:03:26;10.30;99.90
8067;DHT22;4076;48.076;9.118;2023-04-24T00:05:56;10.30;99.90
8067;DHT22;4076;48.076;9.118;2023-04-24T00:08:21;10.30;99.90
8067;DHT22;4076;48.076;9.118;2023-04-24T00:10:49;10.30;99.90
8067;DHT22;4076;48.076;9.118;2023-04-24T00:13:14;10.20;99.90
8067;DHT22;4076;48.076;9.118;2023-04-24T00:15:40;10.20;99.90
8067;DHT22;4076;48.076;9.118;2023-04-24T00:18:05;10.20;99.90
8067;DHT22;4076;48.076;9.118;2023-04-24T00:20:31;10.20;99.90
8067;DHT22;4076;48.076;9.118;2023-04-24T00:23:01;10.20;99.90
8067;DHT22;4076;48.076;9.118;2023-04-24T00:25:26;10.20;99.90
8067;DHT22;4076;48.076;9.118;2023-04-24T00:27:52;10.10;99.90
8067;DHT22;4076;48.076;9.118;2023-04-24T00:30:17;10.10;99.90
8067;DHT22;4076;48.076;9.118;2023-04-24T00:32:43;10.10;99.90
8067;DHT22;4076;48.076;9.118;2023-04-24T00:35:09;10.00;99.90
8067;DHT22;4076;48.076;9.118;2023-04-24T00:37:34;10.00;99.90
8067;DHT22;4076;48.076;9.118;2023-04-24T00:40:00;10.00;99.90
8067;DHT22;4076;48.076;9.118;2023-04-24T00:42:25;10.00;99.90
8067;DHT22;4076;48.076;9.118;2023-04-24T00:44:51;10.00;99.90
8067;DHT22;4076;48.076;9.118;2023-04-24T00:47:19;10.00;99.90
8067;DHT22;4076;48.076;9.118;2023-04-24T00:49:45;10.10;99.90
8067;DHT22;4076;48.076;9.118;2023-04-24T00:52:10;10.10;99.90
8067;DHT22;4076;48.076;9.118;2023-04-24T00:54:37;10.10;99.90
8067;DHT22;4076;48.076;9.118;2023-04-24T00:57:03;10.10;99.90
8067;DHT22;4076;48.076;9.118;2023-04-24T00:59:29;10.10;99.90
8067;DHT22;4076;48.076;9.118;2023-04-24T01:01:56;10.20;99.90
8067;DHT22;4076;48.076;9.118;2023-04-24T01:04:21;10.20;99.90
8067;DHT22;4076;48.076;9.118;2023-04-24T01:06:48;10.10;99.90
8067;DHT22;4076;48.076;9.118;2023-04-24T01:09:15;10.10;99.90
8067;DHT22;4076;48.076;9.118;2023-04-24T01:11:42;10.10;99.90
8067;DHT22;4076;48.076;9.118;2023-04-24T01:14:08;10.10;99.90
8067;DHT22;4076;48.076;9.118;2023-04-24T01:16:34;10.10;99.90
8067;DHT22;4076;48.076;9.118;2023-04-24T01:18:59;10.10;99.90
8067;DHT22;4076;48.076;9.118;2023-04-24T01:21:26;10.10;99.90
8067;DHT22;4076;48.076;9.118;2023-04-24T01:23:55;10.00;99.90
8067;DHT22;4076;48.076;9.118;2023-04-24T01:26:22;10.00;99.90
8067;DHT22;4076;48.076;9.118;2023-04-24T01:28:48;10.00;99.90
8067;DHT22;4076;48.076;9.118;2023-04-24T01:31:15;10.00;99.90
8067;DHT22;4076;48.076;9.118;2023-04-24T01:33:42;9.90;99.90
8067;DHT22;4076;48.076;9.118;2023-04-24T01:36:10;9.90;99.90
8067;DHT22;4076;48.076;9.118;2023-04-24T01:38:36;9.90;99.90
8067;DHT22;4076;48.076;9.118;2023-04-24T01:41:02;9.90;99.90
8067;DHT22;4076;48.076;9.118;2023-04-24T01:43:28;9.90;99.90
8067;DHT22;4076;48.076;9.118;2023-04-24T01:45:53;9.90;99.90
8067;DHT22;4076;48.076;9.118;2023-04-24T01:48:19;9.90;99.90
8067;DHT22;4076;48.076;9.118;2023-04-24T01:50:45;9.90;99.90
8067;DHT22;4076;48.076;9.118;2023-04-24T01:53:10;9.90;99.90
8067;DHT22;4076;48.076;9.118;2023-04-24T01:55:36;9.90;99.90
8067;DHT22;4076;48.076;9.118;2023-04-24T01:58:02;9.80;99.90
8067;DHT22;4076;48.076;9.118;2023-04-24T02:00:28;9.80;99.90
8067;DHT22;4076;48.076;9.118;2023-04-24T02:02:53;9.80;99.90
8067;DHT22;4076;48.076;9.118;2023-04-24T02:05:19;9.70;99.90
8067;DHT22;4076;48.076;9.118;2023-04-24T02:07:45;9.70;99.90
8067;DHT22;4076;48.076;9.118;2023-04-24T02:10:10;9.70;99.90
8067;DHT22;4076;48.076;9.118;2023-04-24T02:12:36;9.60;99.90
8067;DHT22;4076;48.076;9.118;2023-04-24T02:15:02;9.60;99.90
8067;DHT22;4076;48.076;9.118;2023-04-24T02:17:28;9.60;99.90
8067;DHT22;4076;48.076;9.118;2023-04-24T02:19:53;9.60;99.90
8067;DHT22;4076;48.076;9.118;2023-04-24T02:22:19;9.60;99.90
8067;DHT22;4076;48.076;9.118;2023-04-24T02:24:45;9.50;99.90
8067;DHT22;4076;48.076;9.118;2023-04-24T02:27:11;9.60;99.90
8067;DHT22;4076;48.076;9.118;2023-04-24T02:29:37;9.70;99.90
8067;DHT22;4076;48.076;9.118;2023-04-24T02:32:02;9.60;99.90
8067;DHT22;4076;48.076;9.118;2023-04-24T02:34:28;9.70;99.90
8067;DHT22;4076;48.076;9.118;2023-04-24T02:36:53;9.70;99.90
8067;DHT22;4076;48.076;9.118;2023-04-24T02:39:19;9.60;99.90
8067;DHT22;4076;48.076;9.118;2023-04-24T02:41:46;9.60;99.90
8067;DHT22;4076;48.076;9.118;2023-04-24T02:44:12;9.50;99.90
8067;DHT22;4076;48.076;9.118;2023-04-24T02:46:37;9.50;99.90
8067;DHT22;4076;48.076;9.118;2023-04-24T02:49:03;9.40;99.90
8067;DHT22;4076;48.076;9.118;2023-04-24T02:51:29;9.40;99.90
8067;DHT22;4076;48.076;9.118;2023-04-24T02:53:55;9.30;99.90
8067;DHT22;4076;48.076;9.118;2023-04-24T02:56:20;9.30;99.90
8067;DHT22;4076;48.076;9.118;2023-04-24T02:58:46;9.30;99.90
8067;DHT22;4076;48.076;9.118;2023-04-24T03:01:12;9.30;99.90
8067;DHT22;4076;48.076;9.118;2023-04-24T03:03:38;9.30;99.90
8067;DHT22;4076;48.076;9.118;2023-04-24T03:06:04;9.30;99.90
8067;DHT22;4076;48.076;9.118;2023-04-24T03:08:31;9.30;99.90
8067;DHT22;4076;48.076;9.118;2023-04-24T03:10:57;9.30;99.90
8067;DHT22;4076;48.076;9.118;2023-04-24T03:13:22;9.30;99.90
8067;DHT22;4076;48.076;9.118;2023-04-24T03:15:48;9.40;99.90
8067;DHT22;4076;48.076;9.118;2023-04-24T03:18:14;9.40;99.90
8067;DHT22;4076;48.076;9.118;2023-04-24T03:20:39;9.40;99.90
8067;DHT22;4076;48.076;9.118;2023-04-24T03:23:05;9.40;99.90
8067;DHT22;4076;48.076;9.118;2023-04-24T03:25:31;9.40;99.90
8067;DHT22;4076;48.076;9.118;2023-04-24T03:27:56;9.40;99.90
8067;DHT22;4076;48.076;9.118;2023-04-24T03:30:22;9.30;99.90
8067;DHT22;4076;48.076;9.118;2023-04-24T03:32:47;9.30;99.90
8067;DHT22;4076;48.076;9.118;2023-04-24T03:35:13;9.30;99.90
8067;DHT22;4076;48.076;9.118;2023-04-24T03:37:39;9.30;99.90
8067;DHT22;4076;48.076;9.118;2023-04-24T03:40:05;9.40;99.90
8067;DHT22;4076;48.076;9.118;2023-04-24T03:42:32;9.40;99.90
8067;DHT22;4076;48.076;9.118;2023-04-24T03:44:58;9.40;99.90
8067;DHT22;4076;48.076;9.118;2023-04-24T03:47:23;9.40;99.90
8067;DHT22;4076;48.076;9.118;2023-04-24T03:49:49;9.40;99.90
8067;DHT22;4076;48.076;9.118;2023-04-24T03:52:15;9.40;99.90
8067;DHT22;4076;48.076;9.118;2023-04-24T03:54:41;9.50;99.90
8067;DHT22;4076;48.076;9.118;2023-04-24T03:57:06;9.50;99.90
8067;DHT22;4076;48.076;9.118;2023-04-24T03:59:32;9.50;99.90
8067;DHT22;4076;48.076;9.118;2023-04-24T04:01:57;9.50;99.90
8067;DHT22;4076;48.076;9.118;2023-04-24T04:04:23;9.50;99.90
8067;DHT22;4076;48.076;9.118;2023-04-24T04:06:48;9.50;99.90
8067;DHT22;4076;48.076;9.118;2023-04-24T04:09:14;9.50;99.90
8067;DHT22;4076;48.076;9.118;2023-04-24T04:11:40;9.50;99.90
8067;DHT22;4076;48.076;9.118;2023-04-24T04:14:06;9.40;99.90
8067;DHT22;4076;48.076;9.118;2023-04-24T04:16:31;9.40;99.90
8067;DHT22;4076;48.076;9.118;2023-04-24T04:18:57;9.40;99.90
8067;DHT22;4076;48.076;9.118;2023-04-24T04:21:22;9.30;99.90
8067;DHT22;4076;48.076;9.118;2023-04-24T04:23:48;9.20;99.90
8067;DHT22;4076;48.076;9.118;2023-04-24T04:26:14;9.10;99.90
8067;DHT22;4076;48.076;9.118;2023-04-24T04:28:39;9.10;99.90
8067;DHT22;4076;48.076;9.118;2023-04-24T04:31:05;9.10;99.90
8067;DHT22;4076;48.076;9.118;2023-04-24T04:33:33;9.10;99.90
8067;DHT22;4076;48.076;9.118;2023-04-24T04:35:59;9.10;99.90
8067;DHT22;4076;48.076;9.118;2023-04-24T04:38:25;9.00;99.90
8067;DHT22;4076;48.076;9.118;2023-04-24T04:40:55;9.10;99.90
8067;DHT22;4076;48.076;9.118;2023-04-24T04:43:24;9.00;99.90
8067;DHT22;4076;48.076;9.118;2023-04-24T04:45:51;9.00;99.90
8067;DHT22;4076;48.076;9.118;2023-04-24T04:48:17;9.00;99.90
8067;DHT22;4076;48.076;9.118;2023-04-24T04:50:44;9.00;99.90
8067;DHT22;4076;48.076;9.118;2023-04-24T04:53:09;9.00;99.90
8067;DHT22;4076;48.076;9.118;2023-04-24T04:55:36;9.00;99.90
8067;DHT22;4076;48.076;9.118;2023-04-24T04:58:01;9.00;99.90
8067;DHT22;4076;48.076;9.118;2023-04-24T05:00:27;9.00;99.90
8067;DHT22;4076;48.076;9.118;2023-04-24T05:02:54;9.00;99.90
8067;DHT22;4076;48.076;9.118;2023-04-24T05:05:20;9.10;99.90
8067;DHT22;4076;48.076;9.118;2023-04-24T05:07:45;9.10;99.90
8067;DHT22;4076;48.076;9.118;2023-04-24T05:10:11;9.10;99.90
8067;DHT22;4076;48.076;9.118;2023-04-24T05:12:37;9.10;99.90
8067;DHT22;4076;48.076;9.118;2023-04-24T05:15:03;9.10;99.90
8067;DHT22;4076;48.076;9.118;2023-04-24T05:17:29;9.10;99.90
8067;DHT22;4076;48.076;9.118;2023-04-24T05:19:54;9.10;99.90
8067;DHT22;4076;48.076;9.118;2023-04-24T05:22:20;9.10;99.90
8067;DHT22;4076;48.076;9.118;2023-04-24T05:24:46;9.10;99.90
8067;DHT22;4076;48.076;9.118;2023-04-24T05:27:12;9.10;99.90
8067;DHT22;4076;48.076;9.118;2023-04-24T05:29:38;9.10;99.90
8067;DHT22;4076;48.076;9.118;2023-04-24T05:32:03;9.20;99.90
8067;DHT22;4076;48.076;9.118;2023-04-24T05:34:29;9.20;99.90
8067;DHT22;4076;48.076;9.118;2023-04-24T05:36:55;9.20;99.90
8067;DHT22;4076;48.076;9.118;2023-04-24T05:39:21;9.10;99.90
8067;DHT22;4076;48.076;9.118;2023-04-24T05:41:46;8.80;99.90
8067;DHT22;4076;48.076;9.118;2023-04-24T05:44:12;8.60;99.90
8067;DHT22;4076;48.076;9.118;2023-04-24T05:46:37;8.40;99.90
8067;DHT22;4076;48.076;9.118;2023-04-24T05:49:03;8.20;99.90
8067;DHT22;4076;48.076;9.118;2023-04-24T05:51:29;8.20;99.90
8067;DHT22;4076;48.076;9.118;2023-04-24T05:53:54;8.10;99.90
8067;DHT22;4076;48.076;9.118;2023-04-24T05:56:20;8.10;99.90
8067;DHT22;4076;48.076;9.118;2023-04-24T05:58:46;8.10;99.90
8067;DHT22;4076;48.076;9.118;2023-04-24T06:01:12;8.20;99.90
8067;DHT22;4076;48.076;9.118;2023-04-24T06:03:40;8.20;99.90
8067;DHT22;4076;48.076;9.118;2023-04-24T06:06:07;8.20;99.90
8067;DHT22;4076;48.076;9.118;2023-04-24T06:08:33;8.30;99.90
8067;DHT22;4076;48.076;9.118;2023-04-24T06:10:59;8.40;99.90
8067;DHT22;4076;48.076;9.118;2023-04-24T06:13:24;8.50;99.90
8067;DHT22;4076;48.076;9.118;2023-04-24T06:15:50;8.60;99.90
8067;DHT22;4076;48.076;9.118;2023-04-24T06:18:16;8.70;99.90
8067;DHT22;4076;48.076;9.118;2023-04-24T06:20:42;9.00;99.90
8067;DHT22;4076;48.076;9.118;2023-04-24T06:23:08;9.90;99.90
8067;DHT22;4076;48.076;9.118;2023-04-24T06:25:33;11.00;99.90
8067;DHT22;4076;48.076;9.118;2023-04-24T06:27:59;12.00;99.90
8067;DHT22;4076;48.076;9.118;2023-04-24T06:30:24;12.70;99.90
8067;DHT22;4076;48.076;9.118;2023-04-24T06:32:50;13.50;99.90
8067;DHT22;4076;48.076;9.118;2023-04-24T06:35:16;14.40;99.90
8067;DHT22;4076;48.076;9.118;2023-04-24T06:37:42;15.20;99.90
8067;DHT22;4076;48.076;9.118;2023-04-24T06:40:08;16.10;92.80
8067;DHT22;4076;48.076;9.118;2023-04-24T06:42:35;17.00;87.50
8067;DHT22;4076;48.076;9.118;2023-04-24T06:45:00;17.40;80.40
8067;DHT22;4076;48.076;9.118;2023-04-24T06:47:26;17.60;75.90
8067;DHT22;4076;48.076;9.118;2023-04-24T06:49:52;17.50;71.90
8067;DHT22;4076;48.076;9.118;2023-04-24T06:52:18;17.90;70.60
8067;DHT22;4076;48.076;9.118;2023-04-24T06:54:44;18.40;69.60
8067;DHT22;4076;48.076;9.118;2023-04-24T06:57:09;18.30;67.20
8067;DHT22;4076;48.076;9.118;2023-04-24T06:59:36;17.70;64.60
8067;DHT22;4076;48.076;9.118;2023-04-24T07:02:01;16.90;62.90
8067;DHT22;4076;48.076;9.118;2023-04-24T07:04:28;16.90;64.40
8067;DHT22;4076;48.076;9.118;2023-04-24T07:06:53;17.00;63.70
8067;DHT22;4076;48.076;9.118;2023-04-24T07:09:22;16.50;65.80
8067;DHT22;4076;48.076;9.118;2023-04-24T07:11:49;15.50;66.20
8067;DHT22;4076;48.076;9.118;2023-04-24T07:14:15;14.60;67.00
8067;DHT22;4076;48.076;9.118;2023-04-24T07:16:42;13.70;72.50
8067;DHT22;4076;48.076;9.118;2023-04-24T07:19:07;13.10;76.60
8067;DHT22;4076;48.076;9.118;2023-04-24T07:21:33;12.50;77.90
8067;DHT22;4076;48.076;9.118;2023-04-24T07:23:59;12.10;80.50
8067;DHT22;4076;48.076;9.118;2023-04-24T07:26:26;11.80;81.80
8067;DHT22;4076;48.076;9.118;2023-04-24T07:28:52;11.60;85.00
8067;DHT22;4076;48.076;9.118;2023-04-24T07:31:17;11.50;87.00
8067;DHT22;4076;48.076;9.118;2023-04-24T07:33:43;11.40;89.90
8067;DHT22;4076;48.076;9.118;2023-04-24T07:36:10;11.20;91.80
8067;DHT22;4076;48.076;9.118;2023-04-24T07:38:41;11.20;91.60
8067;DHT22;4076;48.076;9.118;2023-04-24T07:41:07;12.50;99.90
8067;DHT22;4076;48.076;9.118;2023-04-24T07:43:32;15.40;99.90
8067;DHT22;4076;48.076;9.118;2023-04-24T07:45:58;18.00;91.70
8067;DHT22;4076;48.076;9.118;2023-04-24T07:48:24;20.20;68.10
8067;DHT22;4076;48.076;9.118;2023-04-24T07:50:52;22.50;57.60
8067;DHT22;4076;48.076;9.118;2023-04-24T07:53:17;23.30;51.70
8067;DHT22;4076;48.076;9.118;2023-04-24T07:55:43;22.60;50.40
8067;DHT22;4076;48.076;9.118;2023-04-24T07:58:09;21.30;50.50
8067;DHT22;4076;48.076;9.118;2023-04-24T08:00:34;19.90;51.80
8067;DHT22;4076;48.076;9.118;2023-04-24T08:03:00;18.60;52.30
8067;DHT22;4076;48.076;9.118;2023-04-24T08:05:26;17.60;53.10
8067;DHT22;4076;48.076;9.118;2023-04-24T08:07:53;16.70;54.60
8067;DHT22;4076;48.076;9.118;2023-04-24T08:10:21;16.10;55.80
8067;DHT22;4076;48.076;9.118;2023-04-24T08:12:47;15.70;56.40
8067;DHT22;4076;48.076;9.118;2023-04-24T08:15:12;15.30;57.20
8067;DHT22;4076;48.076;9.118;2023-04-24T08:17:38;14.90;57.10
8067;DHT22;4076;48.076;9.118;2023-04-24T08:20:04;14.40;58.00
8067;DHT22;4076;48.076;9.118;2023-04-24T08:22:30;14.10;57.80
8067;DHT22;4076;48.076;9.118;2023-04-24T08:24:57;13.90;58.50
8067;DHT22;4076;48.076;9.118;2023-04-24T08:27:23;13.60;59.30
8067;DHT22;4076;48.076;9.118;2023-04-24T08:29:49;13.40;59.80
8067;DHT22;4076;48.076;9.118;2023-04-24T08:32:15;13.40;60.90
8067;DHT22;4076;48.076;9.118;2023-04-24T08:34:41;14.60;64.30
8067;DHT22;4076;48.076;9.118;2023-04-24T08:37:06;17.10;61.90
8067;DHT22;4076;48.076;9.118;2023-04-24T08:39:32;20.40;59.00
8067;DHT22;4076;48.076;9.118;2023-04-24T08:41:58;23.30;51.50
8067;DHT22;4076;48.076;9.118;2023-04-24T08:44:32;25.50;46.10
8067;DHT22;4076;48.076;9.118;2023-04-24T08:46:58;27.00;42.80
8067;DHT22;4076;48.076;9.118;2023-04-24T08:49:25;27.50;38.40
8067;DHT22;4076;48.076;9.118;2023-04-24T08:51:52;28.10;37.00
8067;DHT22;4076;48.076;9.118;2023-04-24T08:54:18;28.30;35.30
8067;DHT22;4076;48.076;9.118;2023-04-24T08:56:44;27.30;33.40
8067;DHT22;4076;48.076;9.118;2023-04-24T08:59:10;26.70;34.40
8067;DHT22;4076;48.076;9.118;2023-04-24T09:01:37;26.00;34.20
8067;DHT22;4076;48.076;9.118;2023-04-24T09:04:08;25.80;34.60
8067;DHT22;4076;48.076;9.118;2023-04-24T09:06:35;25.60;34.70
8067;DHT22;4076;48.076;9.118;2023-04-24T09:09:02;27.00;35.00
8067;DHT22;4076;48.076;9.118;2023-04-24T09:11:30;28.10;32.60
8067;DHT22;4076;48.076;9.118;2023-04-24T09:13:57;28.10;31.80
8067;DHT22;4076;48.076;9.118;2023-04-24T09:16:25;28.00;31.80
8067;DHT22;4076;48.076;9.118;2023-04-24T09:18:51;29.80;31.10
8067;DHT22;4076;48.076;9.118;2023-04-24T09:21:17;31.10;29.00
8067;DHT22;4076;48.076;9.118;2023-04-24T09:23:43;31.10;28.60
8067;DHT22;4076;48.076;9.118;2023-04-24T09:26:09;30.10;28.00
8067;DHT22;4076;48.076;9.118;2023-04-24T09:28:37;28.10;28.80
8067;DHT22;4076;48.076;9.118;2023-04-24T09:31:17;27.70;30.00
8067;DHT22;4076;48.076;9.118;2023-04-24T09:34:01;28.20;29.70
8067;DHT22;4076;48.076;9.118;2023-04-24T09:36:33;28.10;29.00
8067;DHT22;4076;48.076;9.118;2023-04-24T09:39:00;26.60;29.20
8067;DHT22;4076;48.076;9.118;2023-04-24T09:41:26;24.80;30.00
8067;DHT22;4076;48.076;9.118;2023-04-24T09:43:57;23.20;31.50
8067;DHT22;4076;48.076;9.118;2023-04-24T09:46:31;21.70;33.10
8067;DHT22;4076;48.076;9.118;2023-04-24T09:49:08;20.30;33.50
8067;DHT22;4076;48.076;9.118;2023-04-24T09:51:35;19.10;34.90
8067;DHT22;4076;48.076;9.118;2023-04-24T09:54:05;18.30;37.10
8067;DHT22;4076;48.076;9.118;2023-04-24T09:56:36;17.70;37.20
8067;DHT22;4076;48.076;9.118;2023-04-24T09:59:07;17.90;38.40
8067;DHT22;4076;48.076;9.118;2023-04-24T10:01:33;18.40;39.30
8067;DHT22;4076;48.076;9.118;2023-04-24T10:03:59;18.80;40.00
8067;DHT22;4076;48.076;9.118;2023-04-24T10:06:33;19.30;39.60
8067;DHT22;4076;48.076;9.118;2023-04-24T10:08:59;19.30;39.10
8067;DHT22;4076;48.076;9.118;2023-04-24T10:11:28;18.90;39.30
8067;DHT22;4076;48.076;9.118;2023-04-24T10:13:55;18.50;40.50
8067;DHT22;4076;48.076;9.118;2023-04-24T10:16:22;18.20;40.80
8067;DHT22;4076;48.076;9.118;2023-04-24T10:18:48;18.60;41.50
8067;DHT22;4076;48.076;9.118;2023-04-24T10:21:15;18.80;41.60
8067;DHT22;4076;48.076;9.118;2023-04-24T10:23:42;19.10;40.80
8067;DHT22;4076;48.076;9.118;2023-04-24T10:26:09;19.70;40.30
8067;DHT22;4076;48.076;9.118;2023-04-24T10:28:36;20.20;38.40
8067;DHT22;4076;48.076;9.118;2023-04-24T10:31:02;20.40;37.90
8067;DHT22;4076;48.076;9.118;2023-04-24T10:33:29;20.40;37.00
8067;DHT22;4076;48.076;9.118;2023-04-24T10:35:56;20.40;37.20
8067;DHT22;4076;48.076;9.118;2023-04-24T10:38:25;20.50;36.70
8067;DHT22;4076;48.076;9.118;2023-04-24T10:40:57;20.40;36.50
8067;DHT22;4076;48.076;9.118;2023-04-24T10:43:33;20.30;37.20
8067;DHT22;4076;48.076;9.118;2023-04-24T10:46:04;20.30;36.80
8067;DHT22;4076;48.076;9.118;2023-04-24T10:48:30;20.10;37.40
8067;DHT22;4076;48.076;9.118;2023-04-24T10:50:55;19.80;36.90
8067;DHT22;4076;48.076;9.118;2023-04-24T10:53:28;19.60;36.80
8067;DHT22;4076;48.076;9.118;2023-04-24T10:56:06;19.30;37.00
8067;DHT22;4076;48.076;9.118;2023-04-24T10:58:49;19.20;37.20
8067;DHT22;4076;48.076;9.118;2023-04-24T11:01:27;18.90;37.00
8067;DHT22;4076;48.076;9.118;2023-04-24T11:03:59;18.80;37.20
8067;DHT22;4076;48.076;9.118;2023-04-24T11:06:35;18.90;38.00
8067;DHT22;4076;48.076;9.118;2023-04-24T11:11:30;18.30;36.80
8067;DHT22;4076;48.076;9.118;2023-04-24T11:16:34;18.10;37.30
8067;DHT22;4076;48.076;9.118;2023-04-24T11:21:44;18.20;39.00
8067;DHT22;4076;48.076;9.118;2023-04-24T11:29:47;18.60;39.50
8067;DHT22;4076;48.076;9.118;2023-04-24T11:32:27;19.00;40.00
8067;DHT22;4076;48.076;9.118;2023-04-24T11:35:09;19.10;38.20
8067;DHT22;4076;48.076;9.118;2023-04-24T11:37:38;19.00;38.60
8067;DHT22;4076;48.076;9.118;2023-04-24T11:40:05;19.00;37.90
8067;DHT22;4076;48.076;9.118;2023-04-24T11:42:39;18.80;38.10
8067;DHT22;4076;48.076;9.118;2023-04-24T11:45:13;18.80;38.30
8067;DHT22;4076;48.076;9.118;2023-04-24T11:47:39;18.60;37.10
8067;DHT22;4076;48.076;9.118;2023-04-24T11:50:08;18.50;37.40
8067;DHT22;4076;48.076;9.118;2023-04-24T11:52:38;18.20;37.40
8067;DHT22;4076;48.076;9.118;2023-04-24T11:55:04;17.90;36.70
8067;DHT22;4076;48.076;9.118;2023-04-24T11:57:30;17.50;37.10
8067;DHT22;4076;48.076;9.118;2023-04-24T12:00:00;17.20;37.00
8067;DHT22;4076;48.076;9.118;2023-04-24T12:02:27;16.90;36.80
8067;DHT22;4076;48.076;9.118;2023-04-24T12:04:55;16.70;37.10
8067;DHT22;4076;48.076;9.118;2023-04-24T12:07:22;16.50;38.10
8067;DHT22;4076;48.076;9.118;2023-04-24T12:09:54;16.50;38.00
8067;DHT22;4076;48.076;9.118;2023-04-24T12:12:20;16.50;38.00
8067;DHT22;4076;48.076;9.118;2023-04-24T12:14:56;16.50;38.10
8067;DHT22;4076;48.076;9.118;2023-04-24T12:17:29;16.50;38.20
8067;DHT22;4076;48.076;9.118;2023-04-24T12:20:07;16.30;38.00
8067;DHT22;4076;48.076;9.118;2023-04-24T12:22:50;16.10;37.60
8067;DHT22;4076;48.076;9.118;2023-04-24T12:25:17;15.70;38.00
8067;DHT22;4076;48.076;9.118;2023-04-24T12:27:45;15.40;38.30
8067;DHT22;4076;48.076;9.118;2023-04-24T12:30:17;15.40;39.00
8067;DHT22;4076;48.076;9.118;2023-04-24T12:32:46;15.30;38.20
8067;DHT22;4076;48.076;9.118;2023-04-24T12:35:12;15.20;38.40
8067;DHT22;4076;48.076;9.118;2023-04-24T12:37:38;15.20;38.60
8067;DHT22;4076;48.076;9.118;2023-04-24T12:40:09;15.30;39.70
8067;DHT22;4076;48.076;9.118;2023-04-24T12:42:37;15.80;39.70
8067;DHT22;4076;48.076;9.118;2023-04-24T12:45:06;16.00;38.90
8067;DHT22;4076;48.076;9.118;2023-04-24T12:47:34;16.00;38.30
8067;DHT22;4076;48.076;9.118;2023-04-24T12:50:00;15.90;38.40
8067;DHT22;4076;48.076;9.118;2023-04-24T12:52:28;15.80;38.90
8067;DHT22;4076;48.076;9.118;2023-04-24T12:54:55;15.70;38.30
8067;DHT22;4076;48.076;9.118;2023-04-24T12:57:22;15.60;38.50
8067;DHT22;4076;48.076;9.118;2023-04-24T12:59:48;15.60;38.60
8067;DHT22;4076;48.076;9.118;2023-04-24T13:02:14;15.70;38.80
8067;DHT22;4076;48.076;9.118;2023-04-24T13:04:46;15.70;38.80
8067;DHT22;4076;48.076;9.118;2023-04-24T13:07:14;15.70;39.10
8067;DHT22;4076;48.076;9.118;2023-04-24T13:09:41;15.60;38.70
8067;DHT22;4076;48.076;9.118;2023-04-24T13:12:08;15.50;39.10
8067;DHT22;4076;48.076;9.118;2023-04-24T13:14:33;15.50;38.90
8067;DHT22;4076;48.076;9.118;2023-04-24T13:16:59;15.60;38.90
8067;DHT22;4076;48.076;9.118;2023-04-24T13:19:25;15.70;39.30
8067;DHT22;4076;48.076;9.118;2023-04-24T13:21:51;16.00;39.30
8067;DHT22;4076;48.076;9.118;2023-04-24T13:24:17;16.10;39.00
8067;DHT22;4076;48.076;9.118;2023-04-24T13:26:43;16.20;39.20
8067;DHT22;4076;48.076;9.118;2023-04-24T13:29:08;16.40;39.00
8067;DHT22;4076;48.076;9.118;2023-04-24T13:31:34;16.30;38.70
8067;DHT22;4076;48.076;9.118;2023-04-24T13:34:00;16.20;38.20
8067;DHT22;4076;48.076;9.118;2023-04-24T13:36:26;16.00;38.50
8067;DHT22;4076;48.076;9.118;2023-04-24T13:38:52;15.90;38.00
8067;DHT22;4076;48.076;9.118;2023-04-24T13:41:17;15.70;38.70
8067;DHT22;4076;48.076;9.118;2023-04-24T13:43:43;15.30;38.30
8067;DHT22;4076;48.076;9.118;2023-04-24T13:46:09;15.10;38.60
8067;DHT22;4076;48.076;9.118;2023-04-24T13:48:34;14.90;39.30
8067;DHT22;4076;48.076;9.118;2023-04-24T13:51:00;14.80;40.20
8067;DHT22;4076;48.076;9.118;2023-04-24T13:53:25;14.80;40.30
8067;DHT22;4076;48.076;9.118;2023-04-24T13:55:51;14.70;40.20
8067;DHT22;4076;48.076;9.118;2023-04-24T13:58:17;14.60;40.40
8067;DHT22;4076;48.076;9.118;2023-04-24T14:00:42;14.40;40.30
8067;DHT22;4076;48.076;9.118;2023-04-24T14:03:08;14.40;40.50
8067;DHT22;4076;48.076;9.118;2023-04-24T14:05:34;14.30;41.30
8067;DHT22;4076;48.076;9.118;2023-04-24T14:07:59;14.40;41.30
8067;DHT22;4076;48.076;9.118;2023-04-24T14:10:25;14.40;41.30
8067;DHT22;4076;48.076;9.118;2023-04-24T14:12:52;14.40;41.70
8067;DHT22;4076;48.076;9.118;2023-04-24T14:15:18;14.50;41.60
8067;DHT22;4076;48.076;9.118;2023-04-24T14:17:44;14.60;41.90
8067;DHT22;4076;48.076;9.118;2023-04-24T14:20:12;14.60;41.60
8067;DHT22;4076;48.076;9.118;2023-04-24T14:22:38;14.40;41.80
8067;DHT22;4076;48.076;9.118;2023-04-24T14:25:05;14.30;42.20
8067;DHT22;4076;48.076;9.118;2023-04-24T14:27:32;14.10;42.60
8067;DHT22;4076;48.076;9.118;2023-04-24T14:29:57;14.10;42.60
8067;DHT22;4076;48.076;9.118;2023-04-24T14:32:23;14.00;43.00
8067;DHT22;4076;48.076;9.118;2023-04-24T14:34:49;13.90;43.00
8067;DHT22;4076;48.076;9.118;2023-04-24T14:37:14;13.90;43.60
8067;DHT22;4076;48.076;9.118;2023-04-24T14:39:40;13.80;43.50
8067;DHT22;4076;48.076;9.118;2023-04-24T14:42:06;13.80;43.30
8067;DHT22;4076;48.076;9.118;2023-04-24T14:44:31;13.80;43.50
8067;DHT22;4076;48.076;9.118;2023-04-24T14:46:58;13.80;43.60
8067;DHT22;4076;48.076;9.118;2023-04-24T14:49:24;13.80;44.00
8067;DHT22;4076;48.076;9.118;2023-04-24T14:51:49;13.90;44.00
8067;DHT22;4076;48.076;9.118;2023-04-24T14:54:15;14.00;44.00
8067;DHT22;4076;48.076;9.118;2023-04-24T14:56:40;14.00;43.90
8067;DHT22;4076;48.076;9.118;2023-04-24T14:59:07;13.90;43.70
8067;DHT22;4076;48.076;9.118;2023-04-24T15:01:33;13.90;44.00
8067;DHT22;4076;48.076;9.118;2023-04-24T15:03:59;13.90;44.10
8067;DHT22;4076;48.076;9.118;2023-04-24T15:06:25;13.90;44.00
8067;DHT22;4076;48.076;9.118;2023-04-24T15:08:50;14.00;44.10
8067;DHT22;4076;48.076;9.118;2023-04-24T15:11:16;14.10;44.00
8067;DHT22;4076;48.076;9.118;2023-04-24T15:13:42;14.20;44.20
8067;DHT22;4076;48.076;9.118;2023-04-24T15:16:08;14.20;44.00
8067;DHT22;4076;48.076;9.118;2023-04-24T15:18:33;14.30;43.60
8067;DHT22;4076;48.076;9.118;2023-04-24T15:20:59;14.30;43.70
8067;DHT22;4076;48.076;9.118;2023-04-24T15:23:25;14.10;42.80
8067;DHT22;4076;48.076;9.118;2023-04-24T15:25:50;14.00;43.20
8067;DHT22;4076;48.076;9.118;2023-04-24T15:28:16;14.00;43.60
8067;DHT22;4076;48.076;9.118;2023-04-24T15:30:44;13.90;43.20
8067;DHT22;4076;48.076;9.118;2023-04-24T15:33:09;13.80;43.60
8067;DHT22;4076;48.076;9.118;2023-04-24T15:35:35;13.70;43.40
8067;DHT22;4076;48.076;9.118;2023-04-24T15:38:01;13.60;43.80
8067;DHT22;4076;48.076;9.118;2023-04-24T15:40:27;13.60;43.60
8067;DHT22;4076;48.076;9.118;2023-04-24T15:42:53;13.60;44.10
8067;DHT22;4076;48.076;9.118;2023-04-24T15:45:19;13.60;44.00
8067;DHT22;4076;48.076;9.118;2023-04-24T15:47:47;13.80;44.10
8067;DHT22;4076;48.076;9.118;2023-04-24T15:50:12;14.10;44.40
8067;DHT22;4076;48.076;9.118;2023-04-24T15:52:40;14.30;44.00
8067;DHT22;4076;48.076;9.118;2023-04-24T15:55:06;14.40;44.00
8067;DHT22;4076;48.076;9.118;2023-04-24T15:57:32;14.40;43.90
8067;DHT22;4076;48.076;9.118;2023-04-24T15:59:57;14.30;42.60
8067;DHT22;4076;48.076;9.118;2023-04-24T16:02:23;14.20;43.10
8067;DHT22;4076;48.076;9.118;2023-04-24T16:04:49;14.10;43.30
8067;DHT22;4076;48.076;9.118;2023-04-24T16:07:16;14.00;42.80
8067;DHT22;4076;48.076;9.118;2023-04-24T16:09:45;13.90;42.60
8067;DHT22;4076;48.076;9.118;2023-04-24T16:12:10;13.80;42.10
8067;DHT22;4076;48.076;9.118;2023-04-24T16:14:36;13.60;42.60
8067;DHT22;4076;48.076;9.118;2023-04-24T16:17:02;13.40;42.70